Terminal Aerodrome Forecast
Issued by NWS

Home | Current Version | Previous Version | Text Only | Print | Product List | Glossary On
Versions: 1 2 3 4 5 6 7 8 9 10 11 12 13 14 15 16
000
FTUS46 KHNX 030007 AAA
TAFFAT
TAF AMD
KFAT 030007Z 0300/0324 30007KT P6SM VCSH SCT060 BKN070 OVC150
      TEMPO 0300/0302 VRB10G15KT 6SM -SHRA BKN060
     FM031800 29008KT P6SM SKC=

USA.gov is the U.S. government's official web portal to all federal, state and local government web resources and services.